Terminal Aerodrome Forecast
Issued by NWS

Home | Current Version | Previous Version | Text Only | Print | Product List | Glossary On
Versions: 1 2 3 4 5 6 7 8 9 10 11 12 13 14 15 16 17 18 19
873
FTUS43 KFGF 060749 AAA
TAFBJI
TAF AMD
KBJI 060749Z 0608/0706 23008KT P6SM SCT250
     FM061000 17006KT 5SM BR SCT003 BKN250
     FM061400 18008KT P6SM BKN080
     FM062300 20013G20KT P6SM BKN080=

USA.gov is the U.S. government's official web portal to all federal, state and local government web resources and services.